Time;durP1;ratioP1;P1;durP2;ratioP2;P2;SDS_P1;SDS_P2;PMS_P1;PMS_P2;Temp;Humidity;BMP_temperature;BMP_pressure;BME280_temperature;BME280_humidity;BME280_pressure;Samples;Min_cycle;Max_cycle;Signal;HPM_P1;HPM_P2
2021/06/22 00:01:10;;;;;;;1.40;0.93;;;;;;;;;;5051160;28;20065;-76
2021/06/22 00:03:36;;;;;;;2.65;1.10;;;;;;;;;;5051632;28;20029;-76
2021/06/22 00:06:02;;;;;;;5.63;1.23;;;;;;;;;;5051522;28;20037;-76
2021/06/22 00:08:28;;;;;;;5.15;1.20;;;;;;;;;;5051239;28;20025;-76
2021/06/22 00:10:54;;;;;;;1.92;1.20;;;;;;;;;;5050627;28;20071;-76
2021/06/22 00:13:20;;;;;;;3.80;1.25;;;;;;;;;;5051428;28;20031;-76
2021/06/22 00:15:46;;;;;;;2.38;1.20;;;;;;;;;;5051491;28;20025;-76
2021/06/22 00:18:12;;;;;;;3.60;1.20;;;;;;;;;;5051460;28;20435;-76
2021/06/22 00:20:38;;;;;;;2.80;1.25;;;;;;;;;;5050563;28;20078;-76
2021/06/22 00:23:05;;;;;;;5.28;1.42;;;;;;;;;;5051129;28;20112;-76
2021/06/22 00:25:31;;;;;;;6.55;1.30;;;;;;;;;;5051406;28;20049;-76
2021/06/22 00:27:57;;;;;;;6.10;1.40;;;;;;;;;;5051351;28;20033;-76
2021/06/22 00:30:24;;;;;;;2.55;1.50;;;;;;;;;;5050513;28;20025;-76
2021/06/22 00:32:50;;;;;;;2.28;1.17;;;;;;;;;;5051130;28;20083;-75
2021/06/22 00:35:16;;;;;;;3.67;1.60;;;;;;;;;;5051268;28;20029;-76
2021/06/22 00:37:43;;;;;;;4.20;1.52;;;;;;;;;;5052848;28;20020;-76
2021/06/22 00:40:09;;;;;;;2.08;1.58;;;;;;;;;;5054494;28;20029;-76
2021/06/22 00:42:36;;;;;;;2.80;1.60;;;;;;;;;;5055292;28;20094;-76
2021/06/22 00:45:02;;;;;;;3.10;1.55;;;;;;;;;;5053886;28;20398;-75
2021/06/22 00:47:29;;;;;;;9.15;2.50;;;;;;;;;;5054794;28;20037;-76
2021/06/22 00:49:56;;;;;;;3.63;1.60;;;;;;;;;;5053847;28;20036;-76
2021/06/22 00:52:23;;;;;;;5.25;2.00;;;;;;;;;;5054550;28;20043;-76
2021/06/22 00:54:49;;;;;;;3.83;2.55;;;;;;;;;;5054861;28;20035;-76
2021/06/22 00:57:15;;;;;;;5.53;2.10;;;;;;;;;;5054677;28;20433;-76
2021/06/22 00:59:41;;;;;;;4.53;1.77;;;;;;;;;;5054102;28;20013;-76
2021/06/22 01:02:08;;;;;;;5.00;1.92;;;;;;;;;;5054265;28;20037;-76
2021/06/22 01:04:34;;;;;;;3.08;1.60;;;;;;;;;;5054602;28;20381;-76
2021/06/22 01:07:01;;;;;;;4.20;2.30;;;;;;;;;;5053841;28;20036;-76
2021/06/22 01:09:28;;;;;;;3.50;2.10;;;;;;;;;;5053570;28;20600;-76
2021/06/22 01:11:55;;;;;;;9.13;2.20;;;;;;;;;;5054046;28;20474;-76
2021/06/22 01:14:21;;;;;;;3.53;2.00;;;;;;;;;;5054425;28;20398;-76
2021/06/22 01:16:47;;;;;;;4.80;2.00;;;;;;;;;;5054206;28;20059;-76
2021/06/22 01:19:14;;;;;;;5.15;2.25;;;;;;;;;;5052468;28;20385;-76
2021/06/22 01:21:40;;;;;;;4.40;2.20;;;;;;;;;;5054025;28;20079;-76
2021/06/22 01:24:13;;;;;;;5.03;2.30;;;;;;;;;;5054382;28;20036;-76
2021/06/22 01:26:45;;;;;;;2.55;2.30;;;;;;;;;;5054160;28;20025;-75
2021/06/22 01:29:11;;;;;;;3.90;1.98;;;;;;;;;;5053343;28;20025;-76
2021/06/22 01:31:37;;;;;;;3.25;2.10;;;;;;;;;;5053459;28;20035;-76
2021/06/22 01:34:03;;;;;;;2.70;2.22;;;;;;;;;;5052760;28;20104;-75
2021/06/22 01:36:31;;;;;;;6.90;2.60;;;;;;;;;;5053587;28;20437;-76
2021/06/22 01:38:57;;;;;;;3.30;2.35;;;;;;;;;;5053118;28;20021;-76
2021/06/22 01:41:24;;;;;;;4.90;2.70;;;;;;;;;;5053754;28;20052;-76
2021/06/22 01:43:50;;;;;;;9.93;2.72;;;;;;;;;;5053777;28;20408;-76
2021/06/22 01:46:16;;;;;;;4.68;2.42;;;;;;;;;;5052204;28;20035;-76
2021/06/22 01:48:42;;;;;;;4.80;2.60;;;;;;;;;;5052436;28;20037;-76
2021/06/22 19:52:15;;;;;;;10.82;9.73;;;18.70;99.90;;;;;;5093406;28;20506;-76
2021/06/22 19:54:41;;;;;;;13.98;11.00;;;18.10;99.90;;;;;;5088951;28;20038;-76
2021/06/22 19:57:07;;;;;;;27.25;22.92;;;17.90;99.90;;;;;;5062403;28;20601;-77
2021/06/22 19:59:33;;;;;;;11.05;9.65;;;18.00;99.90;;;;;;5067841;28;20025;-78
2021/06/22 20:01:58;;;;;;;9.57;8.68;;;18.00;99.90;;;;;;5069434;28;20526;-76
2021/06/22 20:04:24;;;;;;;9.75;8.80;;;18.30;99.90;;;;;;5069023;28;20032;-77
2021/06/22 20:06:49;;;;;;;10.27;7.85;;;19.00;99.90;;;;;;5069214;28;20112;-76
2021/06/22 20:09:15;;;;;;;9.60;8.60;;;18.80;99.90;;;;;;5068022;28;20060;-77
2021/06/22 20:11:41;;;;;;;13.93;9.90;;;17.90;99.90;;;;;;5068743;28;20553;-76
2021/06/22 20:14:07;;;;;;;11.85;9.85;;;18.00;99.90;;;;;;5068547;28;20074;-76
2021/06/22 20:16:32;;;;;;;10.10;9.10;;;17.90;99.90;;;;;;5068442;28;20033;-77
2021/06/22 20:18:58;;;;;;;11.48;10.38;;;17.80;99.90;;;;;;5068248;28;20660;-77
2021/06/22 20:21:24;;;;;;;18.05;12.48;;;17.70;99.90;;;;;;5049914;28;20029;-76
2021/06/22 20:23:49;;;;;;;12.77;11.40;;;17.70;99.90;;;;;;5068088;28;20485;-75
2021/06/22 20:26:15;;;;;;;11.25;10.10;;;17.80;99.90;;;;;;5067740;28;20025;-76
2021/06/22 20:28:41;;;;;;;12.02;10.82;;;17.70;99.90;;;;;;5067496;28;20052;-76
2021/06/22 20:31:07;;;;;;;11.98;10.93;;;17.80;99.90;;;;;;5067347;28;20059;-75
2021/06/22 20:33:32;;;;;;;11.90;10.70;;;18.00;99.90;;;;;;5067745;28;20036;-75
2021/06/22 20:35:58;;;;;;;14.48;10.65;;;17.60;99.90;;;;;;5067573;28;20035;-76
2021/06/22 20:38:25;;;;;;;13.50;10.88;;;17.50;99.90;;;;;;5067468;28;20027;-74
2021/06/22 20:40:51;;;;;;;11.65;10.60;;;17.60;99.90;;;;;;5067389;28;20162;-75
2021/06/22 20:43:25;;;;;;;11.35;10.25;;;17.70;99.90;;;;;;5068246;28;20036;-75
2021/06/22 20:45:52;;;;;;;12.10;10.90;;;17.60;99.90;;;;;;5067822;28;20115;-76
2021/06/22 20:48:19;;;;;;;12.02;10.35;;;17.60;99.90;;;;;;5068030;28;20032;-74
2021/06/22 20:50:45;;;;;;;15.30;11.90;;;17.70;99.90;;;;;;5067340;28;20112;-75
2021/06/22 20:53:12;;;;;;;12.10;10.98;;;17.60;99.90;;;;;;5067871;28;20031;-75
2021/06/22 20:55:38;;;;;;;15.95;10.40;;;17.70;99.90;;;;;;5068040;28;20044;-75
2021/06/22 20:58:04;;;;;;;11.68;10.57;;;17.50;99.90;;;;;;5067006;28;20056;-75
2021/06/22 21:00:31;;;;;;;12.55;10.88;;;17.50;99.90;;;;;;5067365;28;20028;-75
2021/06/22 21:02:57;;;;;;;13.35;10.43;;;17.40;99.90;;;;;;5058295;28;20028;-75
2021/06/22 21:05:22;;;;;;;12.27;10.43;;;17.20;99.90;;;;;;5054635;28;20507;-75
2021/06/22 21:07:49;;;;;;;14.20;11.57;;;18.00;99.90;;;;;;5036771;28;20041;-75
2021/06/22 21:10:15;;;;;;;12.48;11.10;;;17.30;99.90;;;;;;5053503;28;20652;-74
2021/06/22 21:12:42;;;;;;;14.27;12.63;;;17.20;99.90;;;;;;5054610;22;20053;-76
2021/06/22 21:15:08;;;;;;;13.70;12.35;;;17.40;99.90;;;;;;5034793;28;20075;-77
2021/06/22 21:17:34;;;;;;;15.07;12.35;;;17.50;99.90;;;;;;5016953;28;20030;-77
2021/06/22 21:20:00;;;;;;;16.25;11.55;;;17.40;99.90;;;;;;5033380;28;20028;-77
2021/06/22 21:22:25;;;;;;;15.43;11.82;;;17.30;99.90;;;;;;5034799;28;20034;-77
2021/06/22 21:24:51;;;;;;;11.93;10.45;;;17.40;99.90;;;;;;5034674;28;20037;-77
2021/06/22 21:27:16;;;;;;;14.40;11.13;;;17.40;99.90;;;;;;5032002;28;20026;-77
2021/06/22 21:29:42;;;;;;;13.38;11.05;;;17.40;99.90;;;;;;5013869;28;20525;-77
2021/06/22 21:32:08;;;;;;;13.43;11.25;;;17.60;99.90;;;;;;5014499;28;20038;-77
2021/06/22 21:34:34;;;;;;;16.63;11.20;;;17.40;99.90;;;;;;5013702;28;20482;-77
2021/06/22 21:37:00;;;;;;;13.00;11.70;;;17.30;99.90;;;;;;5014764;28;20025;-77
2021/06/22 21:39:26;;;;;;;15.43;12.00;;;17.40;99.90;;;;;;5013920;28;20029;-77
2021/06/22 21:41:52;;;;;;;16.90;12.38;;;17.30;99.90;;;;;;4996982;28;20088;-77
2021/06/22 21:44:18;;;;;;;13.40;11.80;;;17.20;99.90;;;;;;4996843;28;20026;-77
2021/06/22 21:46:46;;;;;;;15.00;11.85;;;17.20;99.90;;;;;;4997174;28;20026;-77
2021/06/22 21:49:13;;;;;;;15.77;12.60;;;17.10;99.90;;;;;;5014092;28;20026;-77
2021/06/22 21:51:39;;;;;;;15.27;12.07;;;17.10;99.90;;;;;;5014207;28;20061;-77
2021/06/22 21:54:05;;;;;;;15.52;12.45;;;17.00;99.90;;;;;;5013854;28;20036;-78
2021/06/22 21:56:30;;;;;;;13.68;12.27;;;17.30;99.90;;;;;;5057585;28;20028;-76
2021/06/22 21:58:57;;;;;;;14.63;13.23;;;17.20;99.90;;;;;;5040499;28;20167;-78
2021/06/22 22:01:23;;;;;;;15.57;13.23;;;17.00;99.90;;;;;;5019383;28;20117;-77
2021/06/22 22:03:48;;;;;;;18.30;13.35;;;17.10;99.90;;;;;;5019718;28;20126;-77
2021/06/22 22:06:14;;;;;;;18.75;12.73;;;17.20;99.90;;;;;;5037874;28;20033;-78
2021/06/22 22:08:40;;;;;;;17.48;12.75;;;17.20;99.90;;;;;;5040228;28;20056;-78
2021/06/22 22:11:06;;;;;;;15.45;13.82;;;16.90;99.90;;;;;;5041296;28;20060;-77
2021/06/22 22:13:32;;;;;;;18.42;14.20;;;17.00;99.90;;;;;;5027193;28;20034;-77
2021/06/22 22:15:58;;;;;;;25.17;14.18;;;17.00;99.90;;;;;;5046405;28;20509;-78
2021/06/22 22:18:23;;;;;;;16.52;13.70;;;17.50;99.90;;;;;;5056561;28;20036;-77
2021/06/22 22:20:49;;;;;;;15.98;12.27;;;17.80;99.90;;;;;;5058302;28;20032;-77
2021/06/22 22:23:15;;;;;;;21.55;13.82;;;16.80;99.90;;;;;;5059342;28;20033;-78
2021/06/22 22:25:42;;;;;;;16.67;14.88;;;16.90;99.90;;;;;;5060537;28;20115;-77
2021/06/22 22:28:08;;;;;;;19.05;14.75;;;16.60;99.90;;;;;;5049812;28;20034;-77
2021/06/22 22:30:34;;;;;;;16.52;14.45;;;16.70;99.90;;;;;;5021522;28;20036;-77
2021/06/22 22:33:00;;;;;;;17.58;14.20;;;16.70;99.90;;;;;;5039818;28;20021;-78
2021/06/22 22:35:26;;;;;;;16.63;13.70;;;16.90;99.90;;;;;;5039112;28;20037;-78
2021/06/22 22:37:51;;;;;;;18.85;14.65;;;16.70;99.90;;;;;;5022200;28;20021;-78
2021/06/22 22:40:17;;;;;;;19.05;14.93;;;16.80;99.90;;;;;;5021158;28;20030;-78
2021/06/22 22:42:43;;;;;;;19.17;14.65;;;16.50;99.90;;;;;;5039473;28;20029;-78
2021/06/22 22:45:10;;;;;;;16.60;14.38;;;16.90;99.90;;;;;;5052326;28;20111;-79
2021/06/22 22:47:36;;;;;;;19.05;13.90;;;16.60;99.90;;;;;;5041332;28;20113;-78
2021/06/22 22:50:04;;;;;;;18.48;14.88;;;17.40;99.90;;;;;;5040381;28;20048;-78
2021/06/22 22:52:30;;;;;;;17.98;14.57;;;16.40;99.90;;;;;;5058677;28;20075;-78
2021/06/22 22:54:55;;;;;;;18.45;15.23;;;16.50;99.90;;;;;;5040944;28;20029;-78
2021/06/22 22:57:21;;;;;;;22.65;15.77;;;16.80;99.90;;;;;;5055429;28;20037;-78
2021/06/22 22:59:47;;;;;;;20.70;15.25;;;16.90;99.90;;;;;;5020300;28;20108;-78
2021/06/22 23:02:12;;;;;;;20.85;16.13;;;16.60;99.90;;;;;;5004875;28;20029;-78
2021/06/22 23:04:38;;;;;;;20.55;15.70;;;16.50;99.90;;;;;;5039303;28;20374;-78
2021/06/22 23:07:04;;;;;;;21.17;16.38;;;16.60;99.90;;;;;;5021917;28;20617;-79
2021/06/22 23:09:29;;;;;;;20.35;16.00;;;16.50;99.90;;;;;;5021784;28;20036;-78
2021/06/22 23:11:55;;;;;;;20.92;16.08;;;16.70;99.90;;;;;;5042327;28;20064;-78
2021/06/22 23:14:21;;;;;;;20.77;16.75;;;16.80;99.90;;;;;;5024257;28;20028;-75
2021/06/22 23:16:46;;;;;;;17.83;14.93;;;16.60;99.90;;;;;;5040863;28;20096;-78
2021/06/22 23:19:12;;;;;;;20.20;14.45;;;16.70;99.90;;;;;;5059193;28;20299;-79
2021/06/22 23:21:38;;;;;;;18.48;14.90;;;16.60;99.90;;;;;;5041011;28;20106;-79
2021/06/22 23:24:04;;;;;;;22.13;15.80;;;16.50;99.90;;;;;;5041491;28;20492;-78
2021/06/22 23:26:29;;;;;;;24.40;17.42;;;16.50;99.90;;;;;;5058616;28;20400;-78
2021/06/22 23:28:55;;;;;;;21.98;15.95;;;16.80;99.90;;;;;;5042557;28;20033;-77
2021/06/22 23:31:21;;;;;;;16.77;14.38;;;16.60;99.90;;;;;;5038563;28;20069;-77
2021/06/22 23:33:46;;;;;;;17.40;14.93;;;16.70;99.90;;;;;;5038182;28;20021;-78
2021/06/22 23:36:12;;;;;;;19.30;13.85;;;16.50;99.90;;;;;;5004394;28;20116;-79
2021/06/22 23:38:38;;;;;;;19.05;14.68;;;16.50;99.90;;;;;;5039204;28;20021;-78
2021/06/22 23:41:04;;;;;;;15.95;13.73;;;16.50;99.90;;;;;;5038358;28;20075;-78
2021/06/22 23:43:30;;;;;;;17.38;13.65;;;16.60;99.90;;;;;;5055212;28;20045;-78
2021/06/22 23:45:56;;;;;;;17.55;13.80;;;16.50;99.90;;;;;;5059367;28;20025;-78
2021/06/22 23:48:22;;;;;;;18.80;15.05;;;16.50;99.90;;;;;;5022810;28;20029;-78
2021/06/22 23:50:48;;;;;;;19.38;13.93;;;16.50;99.90;;;;;;5040077;28;20549;-78
2021/06/22 23:53:14;;;;;;;21.08;16.33;;;16.40;99.90;;;;;;5027195;28;20033;-78
2021/06/22 23:55:40;;;;;;;17.58;15.07;;;16.40;99.90;;;;;;5038866;28;20032;-77
2021/06/22 23:58:07;;;;;;;18.10;14.63;;;16.30;99.90;;;;;;5037822;28;20029;-77
